createdAt,value
2023-04-07T00:00:56.869Z,18.73
2023-04-07T00:03:59.787Z,16.40
2023-04-07T00:07:02.825Z,15.82
2023-04-07T00:10:06.033Z,16.35
2023-04-07T00:13:08.747Z,17.77
2023-04-07T00:16:11.834Z,17.13
2023-04-07T00:19:14.461Z,16.38
2023-04-07T00:22:18.425Z,15.60
2023-04-07T00:25:21.182Z,16.77
2023-04-07T00:28:23.965Z,16.55
2023-04-07T00:31:27.385Z,16.23
2023-04-07T00:34:31.036Z,15.57
2023-04-07T00:37:34.640Z,16.90
2023-04-07T00:40:37.410Z,18.02
2023-04-07T00:43:41.285Z,17.13
2023-04-07T00:46:43.919Z,17.40
2023-04-07T00:49:47.094Z,18.10
2023-04-07T00:52:49.733Z,18.65
2023-04-07T00:55:52.437Z,15.75
2023-04-07T00:58:55.618Z,16.48
2023-04-07T01:02:22.525Z,16.33
2023-04-07T01:05:32.690Z,16.00
2023-04-07T01:08:47.674Z,17.10
2023-04-07T01:11:57.046Z,17.38
2023-04-07T01:15:03.533Z,17.35
2023-04-07T01:18:18.258Z,17.60
2023-04-07T01:21:23.312Z,18.65
2023-04-07T01:24:41.497Z,18.25
2023-04-07T01:27:55.676Z,18.27
2023-04-07T01:30:59.165Z,17.55
2023-04-07T01:34:03.056Z,17.42
2023-04-07T01:37:07.151Z,16.02
2023-04-07T01:40:10.848Z,17.45
2023-04-07T01:43:13.822Z,17.30
2023-04-07T01:46:16.601Z,16.50
2023-04-07T01:49:19.902Z,18.60
2023-04-07T01:52:22.802Z,18.63
2023-04-07T01:55:25.609Z,17.15
2023-04-07T01:58:37.371Z,18.88
2023-04-07T02:01:43.283Z,19.17
2023-04-07T02:04:55.961Z,17.52
2023-04-07T02:08:03.063Z,18.45
2023-04-07T02:11:08.923Z,17.40
2023-04-07T02:14:14.019Z,18.92
2023-04-07T02:17:30.742Z,17.73
2023-04-07T02:20:35.909Z,18.48
2023-04-07T02:23:39.270Z,17.85
2023-04-07T02:26:43.571Z,19.83
2023-04-07T02:29:46.432Z,18.13
2023-04-07T02:32:49.136Z,18.30
2023-04-07T02:35:51.923Z,17.38
2023-04-07T02:38:57.077Z,18.65
2023-04-07T02:41:59.727Z,17.10
2023-04-07T02:45:09.343Z,17.67
2023-04-07T02:48:13.125Z,18.35
2023-04-07T02:51:15.845Z,18.67
2023-04-07T02:54:18.695Z,16.83
2023-04-07T02:57:21.920Z,17.10
2023-04-07T03:00:30.413Z,16.73
2023-04-07T03:03:45.167Z,16.27
2023-04-07T03:06:52.570Z,17.60
2023-04-07T03:09:56.518Z,18.90
2023-04-07T03:13:00.574Z,19.90
2023-04-07T03:16:03.869Z,18.77
2023-04-07T03:19:13.170Z,19.20
2023-04-07T03:22:19.602Z,18.67
2023-04-07T03:25:27.133Z,17.08
2023-04-07T03:28:30.884Z,18.25
2023-04-07T03:31:33.576Z,19.08
2023-04-07T03:34:36.321Z,17.67
2023-04-07T03:37:39.191Z,19.38
2023-04-07T03:40:47.350Z,18.42
2023-04-07T03:43:50.284Z,18.15
2023-04-07T03:46:54.083Z,18.75
2023-04-07T03:49:59.319Z,17.65
2023-04-07T03:53:02.563Z,17.75
2023-04-07T03:56:07.040Z,17.25
2023-04-07T03:59:22.301Z,17.17
2023-04-07T04:02:43.380Z,17.50
2023-04-07T04:05:50.160Z,18.02
2023-04-07T04:08:57.415Z,18.88
2023-04-07T04:12:01.548Z,20.40
2023-04-07T04:15:06.584Z,17.73
2023-04-07T04:18:09.978Z,17.45
2023-04-07T04:21:12.719Z,18.67
2023-04-07T04:24:18.105Z,19.33
2023-04-07T04:27:22.445Z,16.67
2023-04-07T04:30:30.290Z,18.35
2023-04-07T04:33:37.764Z,17.95
2023-04-07T04:36:41.890Z,18.40
2023-04-07T04:39:44.640Z,17.75
2023-04-07T04:42:50.354Z,18.30
2023-04-07T04:45:56.512Z,18.10
2023-04-07T04:49:02.549Z,17.17
2023-04-07T04:52:06.490Z,17.92
2023-04-07T04:55:14.928Z,17.48
2023-04-07T04:58:20.613Z,17.83
2023-04-07T05:01:27.226Z,16.40
2023-04-07T05:04:38.647Z,17.65
2023-04-07T05:08:13.696Z,18.98
2023-04-07T05:11:17.198Z,18.73
2023-04-07T05:14:24.278Z,17.42
2023-04-07T05:17:33.185Z,17.48
2023-04-07T05:20:38.301Z,17.27
2023-04-07T05:23:42.674Z,24.27
2023-04-07T05:26:47.082Z,17.15
2023-04-07T05:29:49.951Z,16.80
2023-04-07T05:33:00.528Z,18.27
2023-04-07T05:36:17.143Z,17.65
2023-04-07T05:39:19.860Z,16.73
2023-04-07T05:42:24.713Z,16.10
2023-04-07T05:45:33.196Z,16.48
2023-04-07T05:48:38.483Z,15.90
2023-04-07T05:51:41.253Z,16.25
2023-04-07T05:54:48.343Z,16.48
2023-04-07T05:57:51.919Z,15.90
2023-04-07T06:00:58.046Z,15.57
2023-04-07T06:04:01.985Z,15.98
2023-04-07T06:07:04.967Z,14.60
2023-04-07T06:10:08.613Z,15.55
2023-04-07T06:13:11.501Z,16.42
2023-04-07T06:16:14.287Z,16.35
2023-04-07T06:19:17.267Z,16.25
2023-04-07T06:22:20.021Z,15.20
2023-04-07T06:25:22.943Z,16.58
2023-04-07T06:28:26.039Z,14.45
2023-04-07T06:31:31.027Z,16.15
2023-04-07T06:34:33.840Z,14.88
2023-04-07T06:37:36.880Z,15.88
2023-04-07T06:40:39.698Z,14.05
2023-04-07T06:43:42.888Z,13.23
2023-04-07T06:46:48.030Z,15.23
2023-04-07T06:49:51.176Z,13.50
2023-04-07T06:52:54.129Z,14.50
2023-04-07T06:56:07.963Z,12.75
2023-04-07T06:59:11.396Z,13.27
2023-04-07T07:02:14.347Z,12.55
2023-04-07T07:05:20.540Z,12.90
2023-04-07T07:08:23.957Z,13.90
2023-04-07T07:11:27.598Z,13.90
2023-04-07T07:14:30.486Z,12.13
2023-04-07T07:17:33.377Z,12.93
2023-04-07T07:20:36.187Z,11.98
2023-04-07T07:23:39.034Z,12.38
2023-04-07T07:26:43.537Z,11.98
2023-04-07T07:29:47.380Z,12.32
2023-04-07T07:32:51.208Z,14.07
2023-04-07T07:35:54.257Z,13.20
2023-04-07T07:38:57.040Z,12.70
2023-04-07T07:41:59.946Z,12.98
2023-04-07T07:45:02.766Z,13.50
2023-04-07T07:48:05.612Z,13.82
2023-04-07T07:51:09.198Z,13.35
2023-04-07T07:54:12.062Z,12.20
2023-04-07T07:57:14.961Z,12.13
2023-04-07T08:00:17.945Z,13.75
2023-04-07T08:03:22.992Z,12.73
2023-04-07T08:06:27.482Z,13.85
2023-04-07T08:09:30.861Z,12.38
2023-04-07T08:12:33.669Z,13.57
2023-04-07T08:15:36.792Z,13.70
2023-04-07T08:18:39.462Z,13.35
2023-04-07T08:21:42.427Z,12.45
2023-04-07T08:24:45.715Z,13.65
2023-04-07T08:27:48.935Z,14.60
2023-04-07T08:30:51.967Z,13.93
2023-04-07T08:33:58.719Z,12.88
2023-04-07T08:37:01.937Z,12.55
2023-04-07T08:40:07.532Z,15.40
2023-04-07T08:43:11.165Z,12.70
2023-04-07T08:46:19.356Z,14.80
2023-04-07T08:49:23.126Z,12.10
2023-04-07T08:52:53.631Z,11.95
2023-04-07T08:55:59.312Z,11.32
2023-04-07T08:59:03.036Z,10.73
2023-04-07T09:02:06.162Z,10.00
2023-04-07T09:05:10.417Z,10.85
2023-04-07T09:08:13.626Z,11.30
2023-04-07T09:11:16.632Z,10.57
2023-04-07T09:14:21.800Z,11.32
2023-04-07T09:17:28.913Z,10.85
2023-04-07T09:23:54.736Z,9.70
2023-04-07T09:27:20.709Z,11.52
2023-04-07T09:30:23.994Z,10.13
2023-04-07T09:33:31.267Z,9.98
2023-04-07T09:39:54.229Z,9.50
2023-04-07T09:42:58.994Z,9.30
2023-04-07T09:46:28.736Z,8.68
2023-04-07T09:49:32.013Z,10.25
2023-04-07T09:52:54.114Z,9.45
2023-04-07T09:55:59.328Z,8.00
2023-04-07T09:59:02.449Z,9.57
2023-04-07T10:02:06.248Z,8.52
2023-04-07T10:05:09.562Z,8.20
2023-04-07T10:08:12.549Z,8.57
2023-04-07T10:11:16.332Z,8.77
2023-04-07T10:14:20.954Z,8.40
2023-04-07T10:17:24.422Z,8.65
2023-04-07T10:20:27.678Z,8.18
2023-04-07T10:23:52.409Z,7.90
2023-04-07T10:26:58.521Z,7.95
2023-04-07T10:30:02.169Z,8.17
2023-04-07T10:33:05.133Z,8.05
2023-04-07T10:36:08.449Z,7.45
2023-04-07T10:39:11.517Z,6.97
2023-04-07T10:42:39.256Z,7.68
2023-04-07T10:45:55.023Z,7.30
2023-04-07T10:49:10.182Z,8.13
2023-04-07T10:52:13.126Z,8.07
2023-04-07T10:55:33.806Z,7.93
2023-04-07T10:58:37.750Z,7.53
2023-04-07T11:01:40.704Z,7.40
2023-04-07T11:04:45.858Z,7.25
2023-04-07T11:07:51.555Z,6.75
2023-04-07T11:10:54.501Z,6.43
2023-04-07T11:13:57.232Z,7.18
2023-04-07T11:17:03.825Z,7.10
2023-04-07T11:20:07.479Z,6.15
2023-04-07T11:23:10.702Z,6.60
2023-04-07T11:26:15.733Z,6.65
2023-04-07T11:29:28.910Z,6.25
2023-04-07T11:32:32.006Z,5.90
2023-04-07T11:35:36.012Z,6.07
2023-04-07T11:38:39.579Z,4.85
2023-04-07T11:41:51.778Z,5.78
2023-04-07T11:44:54.702Z,5.63
2023-04-07T11:47:57.559Z,5.63
2023-04-07T11:51:01.263Z,6.03
2023-04-07T11:54:04.474Z,6.40
2023-04-07T11:57:07.576Z,5.63
2023-04-07T12:00:13.917Z,5.80
2023-04-07T12:03:18.984Z,5.65
2023-04-07T12:06:30.987Z,6.38
2023-04-07T12:09:36.646Z,6.40
2023-04-07T12:12:39.969Z,6.45
2023-04-07T12:15:42.834Z,6.68
2023-04-07T12:18:45.623Z,7.07
2023-04-07T12:21:48.387Z,6.97
2023-04-07T12:24:51.401Z,6.72
2023-04-07T12:27:54.194Z,6.80
2023-04-07T12:31:00.039Z,8.48
2023-04-07T12:34:03.161Z,7.38
2023-04-07T12:37:06.910Z,7.53
2023-04-07T12:40:10.017Z,7.55
2023-04-07T12:43:13.188Z,6.85
2023-04-07T12:46:16.038Z,7.40
2023-04-07T12:49:19.121Z,6.85
2023-04-07T12:52:22.894Z,6.97
2023-04-07T12:55:26.470Z,7.78
2023-04-07T12:58:32.230Z,6.88
2023-04-07T13:01:35.981Z,8.32
2023-04-07T13:04:41.195Z,8.15
2023-04-07T13:07:44.218Z,8.32
2023-04-07T13:10:47.237Z,8.68
2023-04-07T13:13:50.342Z,8.52
2023-04-07T13:16:53.434Z,8.30
2023-04-07T13:19:57.213Z,9.43
2023-04-07T13:23:07.625Z,9.00
2023-04-07T13:26:12.322Z,9.23
2023-04-07T13:29:16.838Z,9.50
2023-04-07T13:32:19.788Z,9.23
2023-04-07T13:35:22.722Z,9.20
2023-04-07T13:38:26.699Z,8.75
2023-04-07T13:41:29.677Z,9.18
2023-04-07T13:44:32.576Z,9.82
2023-04-07T13:47:35.837Z,9.23
2023-04-07T13:50:39.299Z,10.27
2023-04-07T13:53:42.737Z,10.55
2023-04-07T13:56:45.760Z,9.93
2023-04-07T13:59:50.103Z,11.18
2023-04-07T14:02:53.049Z,11.13
2023-04-07T14:06:01.081Z,10.23
2023-04-07T14:09:04.662Z,10.75
2023-04-07T14:12:07.513Z,11.77
2023-04-07T14:15:10.926Z,11.73
2023-04-07T14:18:13.727Z,11.27
2023-04-07T14:21:16.778Z,10.45
2023-04-07T14:24:22.438Z,11.45
2023-04-07T14:27:26.173Z,10.63
2023-04-07T14:30:28.922Z,10.52
2023-04-07T14:33:32.140Z,10.55
2023-04-07T14:36:35.227Z,12.15
2023-04-07T14:39:39.648Z,11.45
2023-04-07T14:42:42.790Z,12.80
2023-04-07T14:45:46.043Z,12.55
2023-04-07T14:48:49.046Z,12.40
2023-04-07T14:51:54.666Z,12.43
2023-04-07T14:55:00.042Z,15.07
2023-04-07T14:58:03.331Z,12.02
2023-04-07T15:01:06.675Z,10.75
2023-04-07T15:04:09.865Z,13.43
2023-04-07T15:07:12.919Z,12.27
2023-04-07T15:10:17.527Z,12.48
2023-04-07T15:13:21.338Z,13.50
2023-04-07T15:16:24.499Z,16.83
2023-04-07T15:19:27.522Z,12.98
2023-04-07T15:22:31.210Z,13.23
2023-04-07T15:25:34.566Z,12.45
2023-04-07T15:28:37.740Z,13.15
2023-04-07T15:31:40.900Z,13.35
2023-04-07T15:34:43.841Z,13.93
2023-04-07T15:37:47.626Z,13.15
2023-04-07T15:40:50.915Z,12.98
2023-04-07T15:43:54.182Z,13.55
2023-04-07T15:46:57.620Z,12.43
2023-04-07T15:50:00.778Z,13.73
2023-04-07T15:53:07.557Z,13.18
2023-04-07T15:56:11.959Z,12.25
2023-04-07T15:59:16.700Z,12.52
2023-04-07T16:02:22.937Z,13.15
2023-04-07T16:05:26.075Z,10.80
2023-04-07T16:08:29.260Z,11.05
2023-04-07T16:11:32.334Z,10.68
2023-04-07T16:14:35.452Z,9.95
2023-04-07T16:17:40.859Z,8.65
2023-04-07T16:20:43.922Z,9.70
2023-04-07T16:23:47.051Z,8.73
2023-04-07T16:26:51.954Z,8.38
2023-04-07T16:29:54.896Z,8.88
2023-04-07T16:32:57.993Z,8.52
2023-04-07T16:36:00.961Z,8.73
2023-04-07T16:39:04.202Z,8.40
2023-04-07T16:42:07.316Z,7.35
2023-04-07T16:45:10.791Z,7.57
2023-04-07T16:48:13.596Z,8.75
2023-04-07T16:51:20.472Z,7.40
2023-04-07T16:54:23.420Z,6.55
2023-04-07T16:57:26.771Z,7.88
2023-04-07T17:00:29.725Z,7.68
2023-04-07T17:03:32.865Z,7.88
2023-04-07T17:06:35.775Z,7.70
2023-04-07T17:09:39.234Z,7.38
2023-04-07T17:12:42.428Z,7.20
2023-04-07T17:15:45.229Z,6.70
2023-04-07T17:18:48.209Z,7.40
2023-04-07T17:21:51.224Z,7.22
2023-04-07T17:24:54.314Z,7.95
2023-04-07T17:27:57.116Z,7.43
2023-04-07T17:30:59.977Z,7.05
2023-04-07T17:34:03.509Z,7.40
2023-04-07T17:37:06.450Z,6.75
2023-04-07T17:40:09.896Z,6.72
2023-04-07T17:43:12.778Z,6.68
2023-04-07T17:46:16.116Z,6.22
2023-04-07T17:49:19.652Z,6.85
2023-04-07T17:52:24.898Z,7.60
2023-04-07T17:55:28.998Z,6.70
2023-04-07T17:58:32.260Z,6.75
2023-04-07T18:01:35.313Z,6.45
2023-04-07T18:04:39.043Z,6.32
2023-04-07T18:07:42.206Z,6.68
2023-04-07T18:10:45.208Z,5.82
2023-04-07T18:13:48.275Z,6.10
2023-04-07T18:16:51.257Z,6.65
2023-04-07T18:19:54.038Z,6.55
2023-04-07T18:22:57.710Z,6.75
2023-04-07T18:26:05.035Z,6.10
2023-04-07T18:29:10.069Z,6.00
2023-04-07T18:32:13.155Z,6.93
2023-04-07T18:35:16.267Z,6.30
2023-04-07T18:38:19.050Z,5.80
2023-04-07T18:41:21.725Z,5.68
2023-04-07T18:44:25.791Z,5.43
2023-04-07T18:47:29.149Z,5.75
2023-04-07T18:50:34.789Z,5.35
2023-04-07T18:53:37.697Z,6.25
2023-04-07T18:56:40.798Z,6.78
2023-04-07T18:59:45.308Z,6.63
2023-04-07T19:02:48.608Z,6.07
2023-04-07T19:05:52.810Z,6.20
2023-04-07T19:08:56.158Z,7.10
2023-04-07T19:11:59.869Z,6.38
2023-04-07T19:15:02.744Z,7.10
2023-04-07T19:18:05.692Z,5.68
2023-04-07T19:21:08.953Z,5.90
2023-04-07T19:24:11.978Z,5.95
2023-04-07T19:27:15.051Z,5.57
2023-04-07T19:30:20.154Z,5.40
2023-04-07T19:33:22.937Z,5.68
2023-04-07T19:36:26.876Z,5.15
2023-04-07T19:39:29.601Z,4.72
2023-04-07T19:42:32.828Z,4.63
2023-04-07T19:45:35.674Z,4.85
2023-04-07T19:48:40.871Z,5.05
2023-04-07T19:51:43.564Z,5.10
2023-04-07T19:54:46.860Z,4.32
2023-04-07T19:57:50.078Z,3.50
2023-04-07T20:00:54.443Z,4.20
2023-04-07T20:03:57.653Z,3.30
2023-04-07T20:07:00.705Z,3.78
2023-04-07T20:10:04.331Z,4.13
2023-04-07T20:13:07.178Z,5.57
2023-04-07T20:16:10.478Z,7.00
2023-04-07T20:19:13.490Z,7.18
2023-04-07T20:22:16.574Z,7.13
2023-04-07T20:25:19.468Z,6.80
2023-04-07T20:28:22.763Z,7.38
2023-04-07T20:31:25.703Z,6.38
2023-04-07T20:34:28.386Z,7.68
2023-04-07T20:37:31.306Z,8.25
2023-04-07T20:40:40.880Z,6.50
2023-04-07T20:43:43.740Z,6.93
2023-04-07T20:46:47.206Z,7.05
2023-04-07T20:49:50.181Z,6.30
2023-04-07T20:52:54.198Z,6.57
2023-04-07T20:55:59.543Z,6.07
2023-04-07T20:59:02.504Z,7.13
2023-04-07T21:02:05.767Z,6.68
2023-04-07T21:05:09.242Z,7.53
2023-04-07T21:08:13.942Z,7.10
2023-04-07T21:11:17.561Z,8.52
2023-04-07T21:14:20.298Z,7.40
2023-04-07T21:17:23.248Z,8.10
2023-04-07T21:20:26.151Z,7.40
2023-04-07T21:23:29.037Z,8.13
2023-04-07T21:26:31.894Z,8.38
2023-04-07T21:29:34.747Z,8.40
2023-04-07T21:32:37.413Z,8.77
2023-04-07T21:35:40.417Z,7.68
2023-04-07T21:38:43.137Z,7.25
2023-04-07T21:41:45.920Z,6.15
2023-04-07T21:44:49.106Z,6.28
2023-04-07T21:47:52.036Z,8.38
2023-04-07T21:50:55.118Z,6.65
2023-04-07T21:53:57.877Z,6.50
2023-04-07T21:57:01.288Z,5.50
2023-04-07T22:00:04.754Z,5.53
2023-04-07T22:03:17.541Z,6.28
2023-04-07T22:06:21.257Z,6.78
2023-04-07T22:09:24.311Z,6.72
2023-04-07T22:12:27.254Z,6.15
2023-04-07T22:15:30.082Z,7.32
2023-04-07T22:18:33.410Z,7.03
2023-04-07T22:21:36.454Z,7.32
2023-04-07T22:24:39.226Z,7.47
2023-04-07T22:27:42.273Z,6.00
2023-04-07T22:30:45.046Z,6.70
2023-04-07T22:33:47.918Z,7.45
2023-04-07T22:36:50.768Z,6.07
2023-04-07T22:39:53.551Z,5.80
2023-04-07T22:42:56.142Z,6.38
2023-04-07T22:45:58.981Z,5.95
2023-04-07T22:49:01.589Z,5.88
2023-04-07T22:52:04.333Z,5.78
2023-04-07T22:55:07.820Z,6.63
2023-04-07T22:58:10.713Z,5.55
2023-04-07T23:01:13.371Z,4.72
2023-04-07T23:04:16.240Z,4.95
2023-04-07T23:07:19.011Z,4.70
2023-04-07T23:10:22.011Z,3.92
2023-04-07T23:13:24.727Z,3.22
2023-04-07T23:16:27.552Z,3.58
2023-04-07T23:19:30.509Z,3.85
2023-04-07T23:22:33.318Z,3.03
2023-04-07T23:25:36.421Z,3.30
2023-04-07T23:28:39.334Z,3.28
2023-04-07T23:31:41.973Z,8.23
2023-04-07T23:34:44.765Z,9.30
2023-04-07T23:37:47.556Z,13.38
2023-04-07T23:40:50.318Z,11.80
2023-04-07T23:43:52.972Z,10.82
2023-04-07T23:46:55.879Z,10.70
2023-04-07T23:49:59.091Z,11.48
2023-04-07T23:53:03.113Z,9.63
2023-04-07T23:56:06.231Z,7.32
2023-04-07T23:59:08.952Z,7.55
